Time;durP1;ratioP1;P1;durP2;ratioP2;P2;SDS_P1;SDS_P2;PMS_P1;PMS_P2;Temp;Humidity;BMP_temperature;BMP_pressure;BME280_temperature;BME280_humidity;BME280_pressure;Samples;Min_cycle;Max_cycle;Signal;HPM_P1;HPM_P2
2023/04/11 00:00:48;;;;;;;1.53;0.90;;;8.70;99.90;;;;;;6110039;23;20176;-71
2023/04/11 00:03:15;;;;;;;2.87;1.37;;;8.60;99.90;;;;;;6108932;23;20168;-73
2023/04/11 00:05:41;;;;;;;3.10;1.33;;;8.60;99.90;;;;;;6109246;23;20380;-70
2023/04/11 00:08:07;;;;;;;2.90;0.87;;;8.60;99.90;;;;;;6109557;23;20838;-70
2023/04/11 00:10:32;;;;;;;2.87;0.90;;;8.60;99.90;;;;;;6110416;23;20172;-70
2023/04/11 00:12:58;;;;;;;2.57;0.90;;;8.60;99.90;;;;;;6107938;23;20449;-71
2023/04/11 00:15:25;;;;;;;1.43;1.00;;;8.60;99.90;;;;;;6109407;23;20168;-70
2023/04/11 00:17:52;;;;;;;2.67;1.40;;;8.50;99.90;;;;;;6109070;23;20685;-71
2023/04/11 00:20:18;;;;;;;2.20;1.23;;;8.50;99.90;;;;;;6112004;23;20393;-70
2023/04/11 00:22:44;;;;;;;4.77;1.60;;;8.50;99.90;;;;;;6113596;23;20460;-70
2023/04/11 00:25:10;;;;;;;3.40;1.20;;;8.50;99.90;;;;;;6109324;23;20428;-69
2023/04/11 00:27:36;;;;;;;2.93;1.37;;;8.50;99.90;;;;;;6110590;23;20162;-69
2023/04/11 00:30:02;;;;;;;3.70;1.20;;;8.50;99.90;;;;;;6110074;23;20132;-69
2023/04/11 00:32:27;;;;;;;4.80;1.33;;;8.50;99.90;;;;;;6108824;23;20553;-70
2023/04/11 00:34:54;;;;;;;1.83;1.23;;;8.50;99.90;;;;;;6097800;23;20387;-69
2023/04/11 00:37:22;;;;;;;4.73;1.43;;;8.40;99.90;;;;;;6109246;23;20166;-71
2023/04/11 00:39:54;;;;;;;4.57;1.80;;;8.40;99.90;;;;;;6109416;23;20372;-68
2023/04/11 00:42:20;;;;;;;5.17;2.00;;;8.30;99.90;;;;;;6108888;23;20649;-69
2023/04/11 00:44:46;;;;;;;5.37;1.70;;;8.30;99.90;;;;;;6100680;23;20392;-70
2023/04/11 00:47:12;;;;;;;7.30;1.40;;;8.30;99.90;;;;;;6109638;23;20133;-69
2023/04/11 00:49:38;;;;;;;3.47;1.70;;;8.40;99.90;;;;;;6098830;23;20165;-69
2023/04/11 00:52:05;;;;;;;10.77;2.50;;;8.40;99.90;;;;;;6109244;23;20463;-69
2023/04/11 00:54:31;;;;;;;7.37;2.37;;;8.50;99.90;;;;;;6109993;23;20407;-68
2023/04/11 00:56:58;;;;;;;4.10;1.73;;;8.50;99.90;;;;;;6100049;23;20409;-69
2023/04/11 00:59:26;;;;;;;4.97;1.63;;;8.40;99.90;;;;;;6109473;23;20381;-68
2023/04/11 01:01:52;;;;;;;8.23;2.67;;;8.40;99.90;;;;;;6109919;23;20931;-70
2023/04/11 01:04:18;;;;;;;10.57;3.07;;;8.40;99.90;;;;;;6101676;23;20387;-69
2023/04/11 01:06:51;;;;;;;10.43;2.90;;;8.40;99.90;;;;;;6111391;23;20708;-69
2023/04/11 01:09:19;;;;;;;7.20;2.17;;;8.30;99.90;;;;;;6111479;23;20164;-69
2023/04/11 01:11:47;;;;;;;6.87;2.50;;;8.30;99.90;;;;;;6110929;23;20400;-69
2023/04/11 01:14:13;;;;;;;11.33;2.87;;;8.20;99.90;;;;;;6075920;23;20400;-71
2023/04/11 01:16:39;;;;;;;21.93;5.70;;;8.10;99.90;;;;;;6111660;23;20420;-70
2023/04/11 01:19:06;;;;;;;6.57;2.73;;;8.20;99.90;;;;;;6110827;23;20384;-69
2023/04/11 01:21:32;;;;;;;4.30;2.27;;;8.20;99.90;;;;;;6099270;23;20180;-69
2023/04/11 01:24:02;;;;;;;7.20;2.60;;;8.20;99.90;;;;;;6110788;23;20436;-70
2023/04/11 01:26:28;;;;;;;8.47;3.70;;;8.10;99.90;;;;;;6075936;23;20428;-69
2023/04/11 01:28:54;;;;;;;11.00;2.80;;;8.00;99.90;;;;;;6102394;23;20383;-70
2023/04/11 01:31:20;;;;;;;8.73;2.50;;;8.00;99.90;;;;;;6075474;23;20860;-68
2023/04/11 01:33:46;;;;;;;12.97;3.60;;;7.90;99.90;;;;;;6110581;23;20383;-70
2023/04/11 01:36:12;;;;;;;11.63;3.27;;;7.90;99.90;;;;;;6110717;23;20140;-69
2023/04/11 01:38:37;;;;;;;16.93;3.90;;;7.80;99.90;;;;;;6111505;23;20224;-69
2023/04/11 01:41:05;;;;;;;14.03;3.93;;;7.80;99.90;;;;;;6075565;23;20188;-71
2023/04/11 01:43:31;;;;;;;21.53;4.20;;;7.80;99.90;;;;;;6101223;23;20164;-69
2023/04/11 01:45:57;;;;;;;12.40;3.53;;;7.80;99.90;;;;;;6110635;23;20521;-69
2023/04/11 01:48:23;;;;;;;11.37;2.90;;;7.70;99.90;;;;;;6075358;23;20219;-69
2023/04/11 01:50:50;;;;;;;10.00;3.27;;;7.70;99.90;;;;;;6076030;23;20525;-69
2023/04/11 01:53:16;;;;;;;8.50;3.30;;;7.70;99.90;;;;;;6110516;23;20169;-69
2023/04/11 01:55:42;;;;;;;15.73;4.00;;;7.70;99.90;;;;;;6110526;23;20401;-70
2023/04/11 01:58:08;;;;;;;16.70;4.93;;;7.70;99.90;;;;;;6099668;23;20156;-70
2023/04/11 02:00:35;;;;;;;29.07;6.10;;;7.60;99.90;;;;;;6100251;23;20416;-70
2023/04/11 02:03:01;;;;;;;25.23;6.23;;;7.60;99.90;;;;;;6109818;23;20161;-70
2023/04/11 02:05:27;;;;;;;25.53;6.17;;;7.60;99.90;;;;;;6075665;23;20385;-70
2023/04/11 02:07:54;;;;;;;17.77;5.20;;;7.60;99.90;;;;;;6113585;23;20391;-71
2023/04/11 02:10:20;;;;;;;24.73;4.70;;;7.60;99.90;;;;;;6099472;23;20384;-70
2023/04/11 02:12:45;;;;;;;16.30;3.77;;;7.70;99.90;;;;;;6108981;23;20196;-71
2023/04/11 02:15:11;;;;;;;24.73;5.83;;;7.70;99.90;;;;;;6110178;23;20133;-71
2023/04/11 02:17:44;;;;;;;19.57;5.40;;;7.70;99.90;;;;;;6099059;23;20420;-69
2023/04/11 02:20:13;;;;;;;28.17;5.63;;;7.70;99.90;;;;;;6110518;23;20149;-71
2023/04/11 02:22:38;;;;;;;15.57;3.00;;;7.70;99.90;;;;;;6074787;23;20842;-69
2023/04/11 02:25:05;;;;;;;19.40;5.60;;;7.60;99.90;;;;;;6110753;23;20362;-69
2023/04/11 02:27:31;;;;;;;27.97;6.30;;;7.50;99.90;;;;;;6110175;23;20144;-71
2023/04/11 02:29:57;;;;;;;19.50;6.17;;;7.50;99.90;;;;;;6111379;23;20361;-70
2023/04/11 02:32:22;;;;;;;29.77;6.60;;;7.50;99.90;;;;;;6110125;23;20423;-69
2023/04/11 02:34:48;;;;;;;29.13;5.43;;;7.50;99.90;;;;;;6109351;23;20457;-68
2023/04/11 02:37:13;;;;;;;25.63;6.13;;;7.50;99.90;;;;;;6110161;23;20505;-70
2023/04/11 02:39:39;;;;;;;50.70;7.33;;;7.60;99.90;;;;;;6100193;23;20156;-69
2023/04/11 02:42:05;;;;;;;20.23;5.57;;;7.60;99.90;;;;;;6074999;23;20195;-70
2023/04/11 02:44:31;;;;;;;27.60;6.60;;;7.60;99.90;;;;;;6102467;23;20406;-72
2023/04/11 02:46:58;;;;;;;28.37;5.93;;;7.70;99.90;;;;;;6099282;23;20388;-72
2023/04/11 02:49:24;;;;;;;35.53;6.17;;;7.80;99.90;;;;;;6074648;23;20394;-71
2023/04/11 02:51:49;;;;;;;25.67;6.03;;;7.80;99.90;;;;;;6098632;23;20416;-70
2023/04/11 02:54:15;;;;;;;36.40;5.33;;;7.80;99.90;;;;;;6098339;23;20389;-70
2023/04/11 02:56:42;;;;;;;28.20;6.37;;;7.80;99.90;;;;;;6099171;23;20184;-70
2023/04/11 02:59:07;;;;;;;16.20;4.50;;;7.80;99.90;;;;;;6075036;23;20809;-69
2023/04/11 03:01:36;;;;;;;18.83;5.00;;;8.00;99.90;;;;;;6109969;23;20431;-70
2023/04/11 03:04:01;;;;;;;14.83;5.20;;;8.10;99.90;;;;;;6074725;23;20802;-70
2023/04/11 03:06:39;;;;;;;31.90;4.93;;;8.20;99.90;;;;;;6074397;23;20384;-70
2023/04/11 03:09:05;;;;;;;24.47;4.90;;;8.30;99.90;;;;;;6074927;23;20381;-71
2023/04/11 03:11:32;;;;;;;26.83;5.67;;;8.30;99.90;;;;;;6074635;23;20404;-69
2023/04/11 03:13:57;;;;;;;19.10;4.40;;;8.40;99.90;;;;;;6104214;23;20647;-69
2023/04/11 03:16:24;;;;;;;12.53;3.73;;;8.50;99.90;;;;;;6109626;23;20403;-71
2023/04/11 03:18:50;;;;;;;24.83;5.73;;;8.50;99.90;;;;;;6074322;23;20160;-70
2023/04/11 03:21:15;;;;;;;19.20;5.80;;;8.50;99.90;;;;;;6109086;23;20412;-70
2023/04/11 03:23:43;;;;;;;13.23;3.00;;;8.50;99.90;;;;;;6074106;23;20195;-71
2023/04/11 03:26:09;;;;;;;20.70;4.50;;;8.50;99.90;;;;;;6099396;23;20385;-69
2023/04/11 03:28:35;;;;;;;29.63;4.73;;;8.40;99.90;;;;;;6109834;23;20411;-71
2023/04/11 03:31:01;;;;;;;10.77;3.47;;;8.40;99.90;;;;;;6098481;23;20184;-71
2023/04/11 03:33:26;;;;;;;19.53;4.17;;;8.40;99.90;;;;;;6073941;23;20420;-71
2023/04/11 03:35:52;;;;;;;18.07;4.17;;;8.30;99.90;;;;;;6110167;23;20533;-70
2023/04/11 03:38:19;;;;;;;13.07;3.37;;;8.30;99.90;;;;;;6109979;23;20196;-70
2023/04/11 03:40:45;;;;;;;9.90;3.10;;;8.20;99.90;;;;;;6074368;23;20188;-69
2023/04/11 03:43:15;;;;;;;18.43;3.90;;;8.10;99.90;;;;;;6074499;23;20417;-70
2023/04/11 03:45:41;;;;;;;15.60;4.60;;;8.10;99.90;;;;;;6074426;23;20825;-69
2023/04/11 03:48:15;;;;;;;13.97;3.07;;;8.10;99.90;;;;;;6073727;23;20448;-69
2023/04/11 03:50:48;;;;;;;11.37;2.60;;;8.00;99.90;;;;;;6074847;23;20633;-71
2023/04/11 03:53:18;;;;;;;17.90;3.57;;;8.00;99.90;;;;;;6098521;23;20464;-70
2023/04/11 03:55:45;;;;;;;19.73;3.83;;;8.10;99.90;;;;;;6098620;23;20639;-70
2023/04/11 03:58:15;;;;;;;14.73;3.70;;;8.10;99.90;;;;;;6075335;23;20415;-69
2023/04/11 04:00:41;;;;;;;16.20;4.23;;;8.20;99.90;;;;;;6099610;23;20504;-70
2023/04/11 04:03:08;;;;;;;13.50;3.30;;;8.10;99.90;;;;;;6103575;23;20404;-73
2023/04/11 04:05:35;;;;;;;13.43;4.03;;;8.20;99.90;;;;;;6082626;23;20416;-71
2023/04/11 04:08:02;;;;;;;14.77;4.00;;;8.20;99.90;;;;;;6087546;23;20411;-72
2023/04/11 04:10:39;;;;;;;16.40;4.13;;;8.20;99.90;;;;;;6111122;23;20404;-70
2023/04/11 04:13:05;;;;;;;14.13;3.00;;;8.30;99.90;;;;;;6120117;23;20412;-70
2023/04/11 04:15:35;;;;;;;24.27;4.47;;;8.40;99.90;;;;;;6077646;23;20164;-69
2023/04/11 04:18:02;;;;;;;15.27;3.63;;;8.50;99.90;;;;;;6103203;23;20376;-71
2023/04/11 04:20:40;;;;;;;23.83;3.43;;;8.60;99.90;;;;;;6057625;23;20419;-71
2023/04/11 04:23:06;;;;;;;18.37;4.67;;;8.60;99.90;;;;;;6054185;23;20435;-70
2023/04/11 04:25:52;;;;;;;17.20;4.60;;;8.70;99.90;;;;;;6105386;23;20865;-71
2023/04/11 04:28:24;;;;;;;14.60;3.67;;;8.70;99.90;;;;;;6105344;23;20389;-71
2023/04/11 04:30:53;;;;;;;7.40;2.80;;;8.80;99.90;;;;;;6104341;23;20384;-71
2023/04/11 04:33:20;;;;;;;12.17;3.23;;;8.80;99.90;;;;;;6081860;23;20424;-70
2023/04/11 04:35:50;;;;;;;12.70;4.33;;;8.80;99.90;;;;;;6105651;23;20787;-70
2023/04/11 04:38:18;;;;;;;26.57;4.17;;;8.80;99.90;;;;;;6109195;23;20393;-72
2023/04/11 04:40:53;;;;;;;15.37;4.57;;;8.80;99.90;;;;;;6093313;23;20415;-69
2023/04/11 04:43:23;;;;;;;19.87;4.20;;;8.80;99.90;;;;;;6058014;23;20431;-71
2023/04/11 04:45:55;;;;;;;16.70;4.60;;;8.80;99.90;;;;;;6106197;23;20830;-70
2023/04/11 04:48:25;;;;;;;15.23;5.77;;;8.90;99.90;;;;;;6080214;23;20457;-70
2023/04/11 04:50:51;;;;;;;16.23;4.10;;;8.80;99.90;;;;;;6083401;23;20706;-70
2023/04/11 04:53:18;;;;;;;14.50;4.30;;;8.80;99.90;;;;;;6116755;23;20396;-72
2023/04/11 04:55:49;;;;;;;12.10;3.60;;;8.80;99.90;;;;;;6083325;23;20392;-70
2023/04/11 04:58:16;;;;;;;15.87;4.17;;;8.90;99.90;;;;;;6055873;23;20510;-71
2023/04/11 05:00:42;;;;;;;15.67;4.90;;;8.90;99.90;;;;;;6055990;23;20753;-72
2023/04/11 05:03:19;;;;;;;16.57;4.33;;;8.90;99.90;;;;;;6078131;23;20561;-73
2023/04/11 05:05:46;;;;;;;14.23;4.13;;;8.90;99.90;;;;;;6082031;23;20385;-71
2023/04/11 05:08:13;;;;;;;19.17;3.57;;;8.90;99.90;;;;;;6104303;23;20377;-70
2023/04/11 05:10:39;;;;;;;11.47;3.53;;;8.90;99.90;;;;;;6103864;23;20385;-71
2023/04/11 05:13:06;;;;;;;13.23;3.00;;;8.90;99.90;;;;;;6081292;23;20464;-71
2023/04/11 05:15:32;;;;;;;19.67;3.63;;;8.90;99.90;;;;;;6079823;23;20376;-70
2023/04/11 05:17:57;;;;;;;11.73;3.90;;;8.90;99.90;;;;;;6114862;23;20137;-70
2023/04/11 05:20:25;;;;;;;12.23;3.67;;;9.00;99.90;;;;;;6106410;23;20159;-71
2023/04/11 05:22:52;;;;;;;15.97;4.03;;;9.00;99.90;;;;;;6082484;23;20432;-72
2023/04/11 05:25:19;;;;;;;12.97;3.47;;;9.10;99.90;;;;;;6081539;23;20376;-71
2023/04/11 05:27:45;;;;;;;12.10;3.70;;;9.00;99.90;;;;;;6085370;23;20460;-75
2023/04/11 05:30:12;;;;;;;10.97;3.93;;;9.00;99.90;;;;;;6058311;23;20387;-70
2023/04/11 05:32:39;;;;;;;15.03;4.13;;;8.90;99.90;;;;;;6059526;23;20842;-71
2023/04/11 05:35:05;;;;;;;13.57;3.20;;;8.90;99.90;;;;;;6059381;23;20663;-72
2023/04/11 05:37:42;;;;;;;14.50;3.73;;;8.80;99.90;;;;;;6118191;23;20383;-73
2023/04/11 05:40:08;;;;;;;12.10;3.80;;;8.80;99.90;;;;;;6107992;23;20385;-73
2023/04/11 05:42:34;;;;;;;13.50;4.10;;;8.90;99.90;;;;;;6082503;23;20428;-74
2023/04/11 05:45:00;;;;;;;15.87;4.17;;;9.00;99.90;;;;;;6119483;23;20376;-74
2023/04/11 05:47:26;;;;;;;20.50;3.90;;;9.10;99.90;;;;;;6119917;23;20137;-72
2023/04/11 05:49:52;;;;;;;11.80;3.07;;;9.10;99.90;;;;;;6094590;23;20400;-72
2023/04/11 05:52:18;;;;;;;7.90;4.33;;;9.10;99.90;;;;;;6084665;23;20180;-72
2023/04/11 05:54:44;;;;;;;15.23;4.43;;;9.20;99.90;;;;;;6085835;23;20149;-74
2023/04/11 05:57:09;;;;;;;11.90;3.77;;;9.30;99.90;;;;;;6086473;23;20176;-73
2023/04/11 05:59:35;;;;;;;20.83;3.90;;;9.30;99.90;;;;;;6039554;23;20153;-72
2023/04/11 06:02:01;;;;;;;17.10;4.50;;;9.40;99.90;;;;;;6117907;23;20247;-71
2023/04/11 06:04:26;;;;;;;9.63;3.60;;;9.40;99.90;;;;;;6061815;23;20144;-74
2023/04/11 06:06:52;;;;;;;17.60;3.80;;;9.50;99.90;;;;;;6096512;23;20189;-73
2023/04/11 06:09:18;;;;;;;18.97;4.00;;;9.50;99.90;;;;;;6120709;23;20167;-72
2023/04/11 06:11:45;;;;;;;16.53;4.80;;;9.60;99.90;;;;;;6085821;23;20440;-72
2023/04/11 06:14:10;;;;;;;13.20;4.00;;;9.50;99.90;;;;;;6042213;23;20407;-72
2023/04/11 06:16:37;;;;;;;16.33;4.83;;;9.50;99.90;;;;;;6119986;23;20373;-72
2023/04/11 06:19:04;;;;;;;14.07;3.50;;;9.60;99.90;;;;;;6060080;23;20145;-72
2023/04/11 06:21:31;;;;;;;17.53;3.80;;;9.60;99.90;;;;;;6113775;23;20428;-73
2023/04/11 06:24:04;;;;;;;12.80;3.17;;;9.70;99.90;;;;;;6095081;23;20384;-73
2023/04/11 06:26:30;;;;;;;9.70;2.90;;;9.70;99.90;;;;;;6084768;23;20409;-72
2023/04/11 06:28:56;;;;;;;15.53;5.60;;;9.60;99.90;;;;;;6060479;23;20373;-72
2023/04/11 06:31:21;;;;;;;15.07;3.70;;;9.60;99.90;;;;;;6083902;23;20408;-71
2023/04/11 06:33:47;;;;;;;14.23;3.97;;;9.60;99.90;;;;;;6109381;23;20148;-72
2023/04/11 06:36:12;;;;;;;13.20;3.37;;;9.70;99.90;;;;;;6094338;23;20156;-71
2023/04/11 06:38:39;;;;;;;10.83;3.77;;;9.80;99.90;;;;;;6119740;23;20148;-71
2023/04/11 06:41:05;;;;;;;9.60;2.90;;;9.90;99.90;;;;;;6039566;23;20407;-72
2023/04/11 06:43:31;;;;;;;11.90;3.80;;;10.00;99.90;;;;;;6093470;23;20622;-72
2023/04/11 06:45:57;;;;;;;8.40;3.43;;;10.10;99.90;;;;;;6074689;23;20384;-75
2023/04/11 06:48:23;;;;;;;13.10;4.93;;;10.20;99.90;;;;;;6089033;23;20145;-73
2023/04/11 06:50:49;;;;;;;11.33;3.53;;;10.20;99.10;;;;;;6084861;23;20231;-72
2023/04/11 06:53:15;;;;;;;15.80;4.30;;;10.20;98.90;;;;;;6086906;23;20179;-73
2023/04/11 06:55:40;;;;;;;11.03;3.70;;;10.10;98.20;;;;;;6087781;23;20163;-73
2023/04/11 06:58:06;;;;;;;13.00;3.60;;;10.10;98.40;;;;;;6121778;23;20373;-75
2023/04/11 07:00:32;;;;;;;11.27;3.50;;;10.20;98.30;;;;;;6064978;23;20145;-72
2023/04/11 07:02:58;;;;;;;17.53;4.30;;;10.20;97.10;;;;;;6062523;23;20177;-72
2023/04/11 07:05:25;;;;;;;16.77;3.50;;;10.10;97.20;;;;;;6085990;23;20180;-72
2023/04/11 07:08:06;;;;;;;13.00;3.07;;;10.10;97.70;;;;;;6092285;23;20440;-76
2023/04/11 07:10:32;;;;;;;18.60;3.90;;;10.20;97.30;;;;;;6044489;23;20385;-72
2023/04/11 07:13:00;;;;;;;9.70;2.83;;;10.30;95.00;;;;;;6089424;23;20476;-74
2023/04/11 07:15:26;;;;;;;12.63;3.67;;;10.30;94.20;;;;;;6065115;23;20384;-74
2023/04/11 07:17:52;;;;;;;7.60;2.93;;;10.30;93.80;;;;;;6089684;23;20404;-74
2023/04/11 07:20:18;;;;;;;12.00;3.60;;;10.40;91.90;;;;;;6125979;23;20695;-75
2023/04/11 07:22:44;;;;;;;7.20;2.97;;;10.40;92.60;;;;;;6083756;23;20199;-73
2023/04/11 07:25:10;;;;;;;16.83;3.33;;;10.50;92.60;;;;;;6061510;23;20377;-76
2023/04/11 07:27:36;;;;;;;14.07;2.47;;;10.50;92.60;;;;;;6059308;23;20763;-77
2023/04/11 07:30:02;;;;;;;11.43;3.10;;;10.50;93.40;;;;;;6059382;23;20481;-74
2023/04/11 07:32:28;;;;;;;11.60;6.23;;;10.60;91.70;;;;;;6092327;23;20230;-75
2023/04/11 07:34:54;;;;;;;10.67;3.23;;;10.80;91.60;;;;;;6058750;23;20393;-75
2023/04/11 07:37:20;;;;;;;14.95;5.35;;;10.80;89.30;;;;;;6034670;23;20420;-72
2023/04/11 07:39:47;;;;;;;12.20;3.70;;;10.80;89.10;;;;;;6093171;23;20146;-72
2023/04/11 07:42:13;;;;;;;12.73;3.10;;;10.70;90.00;;;;;;6062019;23;20189;-74
2023/04/11 07:44:38;;;;;;;15.10;3.40;;;10.80;85.30;;;;;;6059605;23;20440;-73
2023/04/11 07:47:04;;;;;;;11.80;3.47;;;10.90;85.00;;;;;;6088167;23;20157;-77
2023/04/11 07:49:30;;;;;;;11.00;3.57;;;10.90;85.30;;;;;;6038498;23;20161;-74
2023/04/11 07:51:55;;;;;;;13.47;3.77;;;10.90;84.70;;;;;;6084241;23;20186;-74
2023/04/11 07:54:23;;;;;;;14.33;3.43;;;10.90;82.30;;;;;;6036959;23;20185;-73
2023/04/11 07:56:50;;;;;;;4.90;2.43;;;11.10;80.70;;;;;;6036448;23;20157;-74
2023/04/11 07:59:16;;;;;;;8.10;2.70;;;11.30;77.90;;;;;;6059320;23;20381;-74
2023/04/11 08:01:42;;;;;;;9.53;3.03;;;11.20;79.10;;;;;;6094305;23;20510;-71
2023/04/11 08:04:08;;;;;;;7.50;2.43;;;11.20;75.60;;;;;;6060799;23;20385;-73
2023/04/11 08:06:35;;;;;;;10.17;3.67;;;11.10;75.00;;;;;;6085654;23;20142;-73
2023/04/11 08:09:01;;;;;;;9.80;3.20;;;11.20;76.60;;;;;;6041190;23;20415;-73
2023/04/11 08:11:27;;;;;;;11.50;3.80;;;11.20;77.70;;;;;;6060497;23;20459;-74
2023/04/11 08:13:53;;;;;;;13.63;2.80;;;11.30;78.10;;;;;;6040474;23;20208;-75
2023/04/11 08:16:20;;;;;;;7.50;3.13;;;11.40;77.20;;;;;;6076551;23;20144;-75
2023/04/11 08:18:46;;;;;;;12.57;2.50;;;11.60;73.50;;;;;;6062615;23;20428;-73
2023/04/11 08:21:12;;;;;;;10.60;3.10;;;11.60;70.20;;;;;;6064221;23;20618;-73
2023/04/11 08:23:41;;;;;;;8.77;2.30;;;11.50;66.10;;;;;;6071041;23;20413;-74
2023/04/11 08:26:08;;;;;;;10.93;3.30;;;11.30;68.00;;;;;;6061481;23;20417;-74
2023/04/11 08:28:34;;;;;;;10.73;2.53;;;11.20;67.90;;;;;;6060575;23;20388;-74
2023/04/11 08:31:01;;;;;;;8.93;2.17;;;11.10;67.00;;;;;;6085054;23;20393;-73
2023/04/11 08:33:27;;;;;;;8.80;2.70;;;11.20;68.40;;;;;;6060595;23;20400;-73
2023/04/11 08:35:54;;;;;;;6.47;3.13;;;11.40;67.80;;;;;;6035709;23;20393;-74
2023/04/11 08:38:20;;;;;;;7.47;2.40;;;11.50;67.40;;;;;;6061085;23;20157;-72
2023/04/11 08:40:46;;;;;;;7.87;2.53;;;11.70;65.60;;;;;;6061047;23;20413;-74
2023/04/11 08:43:12;;;;;;;7.93;2.23;;;11.60;65.60;;;;;;6061693;23;20173;-74
2023/04/11 08:45:41;;;;;;;13.30;2.80;;;11.60;67.50;;;;;;6061603;23;20145;-75
2023/04/11 08:48:11;;;;;;;11.83;2.33;;;11.80;65.40;;;;;;6091144;23;20416;-75
2023/04/11 08:50:39;;;;;;;8.30;2.47;;;11.90;64.10;;;;;;6061344;23;20456;-74
2023/04/11 08:53:07;;;;;;;9.60;2.80;;;12.10;64.30;;;;;;6061270;23;20664;-74
2023/04/11 08:55:33;;;;;;;8.63;2.00;;;12.40;58.30;;;;;;6061473;23;20484;-74
2023/04/11 08:57:58;;;;;;;7.67;1.93;;;12.50;57.70;;;;;;6065341;23;20715;-72
2023/04/11 09:00:27;;;;;;;14.23;2.37;;;12.50;57.00;;;;;;6036471;23;20381;-73
2023/04/11 09:02:58;;;;;;;6.20;2.00;;;12.60;55.90;;;;;;6093354;23;20179;-73
2023/04/11 09:05:28;;;;;;;5.43;1.70;;;12.70;56.50;;;;;;6060887;23;20377;-75
2023/04/11 09:07:58;;;;;;;8.53;2.20;;;13.10;55.50;;;;;;6046382;23;20393;-75
2023/04/11 09:10:25;;;;;;;11.50;2.23;;;13.10;54.00;;;;;;6063466;23;20381;-75
2023/04/11 09:12:52;;;;;;;9.43;3.40;;;13.10;54.80;;;;;;6039332;23;20409;-72
2023/04/11 09:15:23;;;;;;;7.60;2.67;;;13.10;54.50;;;;;;6084975;23;20374;-74
2023/04/11 09:17:49;;;;;;;5.23;1.53;;;13.40;54.60;;;;;;6096644;23;20677;-73
2023/04/11 09:20:25;;;;;;;5.20;2.30;;;13.80;54.10;;;;;;6093430;23;20641;-73
2023/04/11 09:22:52;;;;;;;10.90;2.50;;;13.70;53.60;;;;;;6067657;23;20431;-74
2023/04/11 09:25:20;;;;;;;12.53;5.00;;;13.70;53.30;;;;;;6094424;23;20397;-75
2023/04/11 09:27:46;;;;;;;9.10;2.53;;;13.80;53.30;;;;;;6069237;23;20396;-75
2023/04/11 09:30:24;;;;;;;4.13;2.10;;;13.80;52.90;;;;;;6103174;23;20372;-76
2023/04/11 09:32:52;;;;;;;7.40;2.00;;;13.80;52.80;;;;;;6093882;23;20417;-75
2023/04/11 09:35:23;;;;;;;10.50;3.00;;;13.60;51.80;;;;;;6069506;23;20404;-73
2023/04/11 09:37:54;;;;;;;8.03;2.57;;;13.60;52.00;;;;;;6067961;23;20417;-73
2023/04/11 09:40:39;;;;;;;6.90;2.10;;;13.50;52.20;;;;;;6092088;23;20393;-72
2023/04/11 09:43:07;;;;;;;6.50;2.10;;;13.40;52.40;;;;;;6118816;23;20493;-75
2023/04/11 09:45:33;;;;;;;4.13;1.83;;;13.40;53.30;;;;;;6079666;23;20369;-75
2023/04/11 09:48:00;;;;;;;4.87;1.63;;;13.40;52.30;;;;;;6095102;23;20153;-74
2023/04/11 09:50:32;;;;;;;7.97;2.50;;;13.50;51.60;;;;;;6117823;23;20399;-76
2023/04/11 09:53:01;;;;;;;8.13;3.57;;;13.50;51.70;;;;;;6127520;23;20427;-76
2023/04/11 09:55:27;;;;;;;8.23;2.80;;;13.70;51.40;;;;;;6093694;23;20397;-74
2023/04/11 09:57:53;;;;;;;11.67;2.90;;;13.60;51.20;;;;;;6092057;23;20396;-73
2023/04/11 10:00:28;;;;;;;6.40;2.03;;;13.70;50.60;;;;;;6092383;23;20137;-72
2023/04/11 10:02:54;;;;;;;5.97;3.30;;;13.50;51.00;;;;;;6043810;23;20884;-75
2023/04/11 10:05:25;;;;;;;11.47;2.67;;;13.60;51.60;;;;;;6091192;23;20381;-73
2023/04/11 10:08:17;;;;;;;12.30;2.83;;;13.70;50.00;;;;;;6118146;23;20390;-76
2023/04/11 10:10:43;;;;;;;5.23;2.70;;;13.50;48.80;;;;;;6103702;23;20456;-74
2023/04/11 10:13:34;;;;;;;6.03;2.27;;;13.60;48.80;;;;;;6119265;23;20474;-75
2023/04/11 10:16:16;;;;;;;10.60;2.83;;;13.50;48.70;;;;;;6129017;23;20364;-74
2023/04/11 10:19:03;;;;;;;12.90;2.47;;;13.50;49.50;;;;;;6096385;23;20378;-75
2023/04/11 10:21:29;;;;;;;6.90;2.13;;;13.80;49.40;;;;;;6099216;23;20426;-74
2023/04/11 10:24:15;;;;;;;7.40;2.20;;;13.80;46.60;;;;;;6119989;23;20459;-76
2023/04/11 10:26:50;;;;;;;10.57;2.20;;;13.80;47.20;;;;;;6093911;23;20413;-75
2023/04/11 10:29:31;;;;;;;8.70;2.37;;;13.80;47.20;;;;;;6120006;23;20380;-73
2023/04/11 10:32:16;;;;;;;4.83;1.70;;;13.60;47.30;;;;;;6096834;23;20405;-73
2023/04/11 10:35:07;;;;;;;8.80;2.37;;;13.60;46.80;;;;;;6092969;23;20417;-73
2023/04/11 10:37:35;;;;;;;6.70;2.40;;;13.50;47.30;;;;;;6083166;23;20404;-75
2023/04/11 10:40:04;;;;;;;5.50;1.97;;;13.60;47.20;;;;;;6095392;23;20378;-74
2023/04/11 10:42:36;;;;;;;6.53;2.80;;;13.60;47.10;;;;;;6094851;23;20428;-73
2023/04/11 10:45:31;;;;;;;6.70;2.47;;;13.60;46.40;;;;;;6120343;23;20395;-75
2023/04/11 10:48:12;;;;;;;5.10;2.40;;;13.80;46.50;;;;;;6115090;23;20447;-74
2023/04/11 10:50:41;;;;;;;5.50;1.90;;;13.80;45.60;;;;;;6065916;23;20639;-74
2023/04/11 10:53:32;;;;;;;7.70;2.63;;;14.00;44.40;;;;;;6047383;23;20693;-75
2023/04/11 10:55:58;;;;;;;8.93;4.20;;;13.90;43.70;;;;;;6096957;23;20385;-74
2023/04/11 10:58:39;;;;;;;6.33;2.03;;;14.00;44.90;;;;;;6095853;23;20384;-74
2023/04/11 11:01:13;;;;;;;11.13;3.37;;;14.30;45.40;;;;;;6093466;23;20414;-75
2023/04/11 11:03:50;;;;;;;6.10;2.30;;;14.50;45.40;;;;;;6094587;23;20455;-75
2023/04/11 11:06:23;;;;;;;4.87;1.40;;;14.60;44.40;;;;;;6098718;23;20395;-74
2023/04/11 11:08:51;;;;;;;7.03;2.50;;;14.50;42.80;;;;;;6097341;23;20372;-75
2023/04/11 11:11:18;;;;;;;6.60;1.83;;;14.40;41.30;;;;;;6073347;23;20458;-75
2023/04/11 11:13:50;;;;;;;10.70;3.90;;;14.20;41.20;;;;;;6097105;23;20460;-75
2023/04/11 11:16:30;;;;;;;7.40;2.90;;;14.10;41.80;;;;;;6048818;23;20556;-75
2023/04/11 11:19:00;;;;;;;7.80;2.60;;;14.30;42.40;;;;;;5991651;23;20433;-73
2023/04/11 11:21:31;;;;;;;4.67;1.90;;;14.50;42.20;;;;;;6062554;23;20430;-75
2023/04/11 11:24:27;;;;;;;8.27;2.10;;;14.80;42.20;;;;;;6041175;23;20454;-74
2023/04/11 11:26:54;;;;;;;6.33;2.23;;;14.80;42.60;;;;;;6026518;23;20402;-76
2023/04/11 11:29:39;;;;;;;5.23;2.27;;;15.00;42.10;;;;;;6040481;23;20394;-75
2023/04/11 11:32:32;;;;;;;4.30;1.60;;;15.10;41.10;;;;;;6038785;23;20414;-75
2023/04/11 11:34:59;;;;;;;4.63;1.73;;;15.10;39.50;;;;;;6038846;23;20406;-73
2023/04/11 11:37:25;;;;;;;4.60;2.10;;;15.20;40.00;;;;;;6037074;23;20394;-75
2023/04/11 11:39:51;;;;;;;5.93;2.77;;;15.40;39.30;;;;;;6014292;23;20395;-76
2023/04/11 11:42:17;;;;;;;6.13;2.20;;;15.30;39.00;;;;;;6016135;23;20428;-73
2023/04/11 11:44:45;;;;;;;5.20;1.83;;;15.30;39.90;;;;;;6009213;23;20163;-75
2023/04/11 11:47:14;;;;;;;8.00;1.60;;;15.40;39.90;;;;;;5985446;23;20388;-75
2023/04/11 11:49:54;;;;;;;3.80;1.63;;;15.30;39.30;;;;;;6005752;23;20372;-75
2023/04/11 11:52:40;;;;;;;7.30;2.20;;;15.70;38.90;;;;;;5982087;24;20415;-74
2023/04/11 11:55:18;;;;;;;7.00;2.17;;;15.80;38.80;;;;;;5981317;24;20432;-73
2023/04/11 11:57:47;;;;;;;8.50;2.50;;;15.90;38.70;;;;;;5992092;23;20419;-75
2023/04/11 12:00:27;;;;;;;4.40;1.43;;;15.60;38.20;;;;;;6006385;23;20453;-73
2023/04/11 12:03:04;;;;;;;5.00;1.77;;;15.10;39.20;;;;;;6032436;23;20415;-75
2023/04/11 12:05:32;;;;;;;5.03;1.60;;;14.80;39.30;;;;;;6034334;23;20376;-75
2023/04/11 12:08:03;;;;;;;6.43;1.97;;;14.70;39.00;;;;;;6010948;23;20403;-75
2023/04/11 12:10:38;;;;;;;5.50;1.70;;;14.60;39.60;;;;;;6010263;23;20386;-74
2023/04/11 12:13:21;;;;;;;7.00;1.83;;;14.40;40.50;;;;;;6046965;23;20467;-74
2023/04/11 12:15:55;;;;;;;5.37;1.70;;;14.70;41.10;;;;;;6056657;23;20373;-75
2023/04/11 12:18:22;;;;;;;7.00;1.90;;;15.10;40.40;;;;;;6047658;23;20399;-76
2023/04/11 12:20:49;;;;;;;13.50;2.07;;;15.20;39.10;;;;;;6094455;23;20416;-75
2023/04/11 12:23:18;;;;;;;8.53;2.50;;;15.30;38.70;;;;;;6047187;23;20443;-75
2023/04/11 12:25:47;;;;;;;6.77;2.17;;;15.20;37.90;;;;;;6095192;23;20840;-75
2023/04/11 12:28:13;;;;;;;4.27;1.50;;;15.10;38.00;;;;;;6093082;23;20436;-73
2023/04/11 12:30:39;;;;;;;5.53;2.23;;;15.40;38.30;;;;;;6117810;23;20384;-74
2023/04/11 12:33:09;;;;;;;5.20;1.80;;;15.30;38.90;;;;;;6096958;23;20423;-73
2023/04/11 12:35:34;;;;;;;6.50;1.80;;;15.20;38.80;;;;;;6096102;23;20385;-73
2023/04/11 12:38:00;;;;;;;7.03;2.33;;;15.20;38.80;;;;;;6093558;23;20144;-74
2023/04/11 12:40:28;;;;;;;5.47;1.67;;;15.30;39.00;;;;;;6046372;23;20172;-74
2023/04/11 12:42:54;;;;;;;6.57;2.10;;;15.50;38.30;;;;;;6117918;23;20428;-75
2023/04/11 12:45:21;;;;;;;6.37;1.80;;;15.70;37.70;;;;;;6048149;23;20372;-75
2023/04/11 12:47:48;;;;;;;6.47;1.90;;;15.60;37.20;;;;;;6094518;23;20482;-74
2023/04/11 12:50:15;;;;;;;4.60;1.83;;;15.90;37.50;;;;;;6047153;23;20402;-76
2023/04/11 12:52:40;;;;;;;3.57;1.90;;;16.20;38.00;;;;;;5992701;23;20406;-76